Time;durP1;ratioP1;P1;durP2;ratioP2;P2;SDS_P1;SDS_P2;PMS_P1;PMS_P2;Temp;Humidity;BMP_temperature;BMP_pressure;BME280_temperature;BME280_humidity;BME280_pressure;Samples;Min_cycle;Max_cycle;Signal;HPM_P1;HPM_P2
2022/04/21 00:00:12;;;;;;;;;9.25;8.75;;;;;13.41;53.50;100802.34;4960233;28;45448;-79
2022/04/21 00:02:37;;;;;;;;;11.25;10.50;;;;;13.36;53.38;100798.25;4967490;28;45541;-79
2022/04/21 00:05:04;;;;;;;;;16.25;11.50;;;;;13.30;53.59;100802.91;4966284;28;45383;-79
2022/04/21 00:07:29;;;;;;;;;8.50;8.50;;;;;13.26;53.84;100784.72;4970096;28;45589;-79
2022/04/21 00:09:55;;;;;;;;;12.00;8.50;;;;;13.22;53.62;100791.06;4971392;28;45423;-79
2022/04/21 00:12:20;;;;;;;;;9.25;9.25;;;;;13.16;53.78;100786.09;4971344;28;45591;-79
2022/04/21 00:14:45;;;;;;;;;10.33;10.33;;;;;13.11;53.86;100788.97;4971035;28;57705;-79
2022/04/21 00:17:11;;;;;;;;;14.75;12.25;;;;;13.09;53.70;100789.97;4971691;28;45375;-79
2022/04/21 00:19:37;;;;;;;;;9.25;9.25;;;;;13.06;53.82;100775.16;4965445;28;46633;-79
2022/04/21 00:24:48;;;;;;;;;17.00;13.00;;;;;12.96;54.35;100771.31;4971266;28;45548;-79
2022/04/21 00:27:13;;;;;;;;;13.00;13.00;;;;;12.91;54.07;100771.53;4969786;28;45457;-79
2022/04/21 00:29:39;;;;;;;;;13.25;12.50;;;;;12.87;54.51;100769.13;4969957;28;45391;-79
2022/04/21 00:32:04;;;;;;;;;14.75;11.50;;;;;12.84;54.75;100771.91;4969822;28;46124;-79
2022/04/21 00:34:31;;;;;;;;;10.50;10.50;;;;;12.80;54.84;100766.81;4971686;28;45423;-79
2022/04/21 00:36:57;;;;;;;;;15.00;13.75;;;;;12.77;55.10;100768.75;4966268;28;45438;-79
2022/04/21 00:39:22;;;;;;;;;14.00;14.00;;;;;12.74;54.55;100772.41;4964873;28;50312;-79
2022/04/21 00:41:47;;;;;;;;;12.75;11.00;;;;;12.73;54.97;100773.31;4971323;28;45975;-79
2022/04/21 00:44:13;;;;;;;;;13.75;11.75;;;;;12.71;55.36;100774.34;4970854;28;45443;-79
2022/04/21 00:46:38;;;;;;;;;13.00;11.50;;;;;12.67;55.09;100770.16;4972025;28;46625;-79
2022/04/21 00:49:05;;;;;;;;;11.50;11.50;;;;;12.62;55.50;100767.75;4972180;28;45291;-79
2022/04/21 00:51:31;;;;;;;;;13.75;12.00;;;;;12.58;55.46;100768.88;4970445;28;46130;-79
2022/04/21 00:53:58;;;;;;;;;12.00;9.50;;;;;12.52;55.27;100764.72;4971126;28;45860;-79
2022/04/21 00:56:25;;;;;;;;;10.00;10.00;;;;;12.48;55.37;100762.34;4971038;28;45593;-79
2022/04/21 00:58:50;;;;;;;;;12.50;10.00;;;;;12.43;55.85;100754.66;4970664;28;45537;-79
2022/04/21 01:04:01;;;;;;;;;10.75;10.75;;;;;12.35;55.63;100754.19;4971421;28;45383;-79
2022/04/21 01:06:26;;;;;;;;;11.00;10.00;;;;;12.33;55.50;100748.16;4970642;28;48158;-78
2022/04/21 01:08:52;;;;;;;;;13.50;8.25;;;;;12.28;55.33;100745.75;4969183;28;45427;-79
2022/04/21 01:11:18;;;;;;;;;10.25;9.00;;;;;12.28;55.96;100740.47;4970722;28;45560;-79
2022/04/21 01:13:44;;;;;;;;;12.50;10.50;;;;;12.27;55.86;100741.41;4970973;28;45718;-79
2022/04/21 01:16:10;;;;;;;;;10.75;10.00;;;;;12.25;55.84;100740.63;4972390;28;45616;-79
2022/04/21 01:18:35;;;;;;;;;10.25;8.75;;;;;12.23;56.18;100739.00;4970600;28;45332;-79
2022/04/21 01:21:01;;;;;;;;;7.75;7.75;;;;;12.18;56.15;100741.84;4970476;28;45398;-79
2022/04/21 01:23:26;;;;;;;;;7.50;7.50;;;;;12.16;56.01;100745.47;4970084;28;51187;-79
2022/04/21 01:25:52;;;;;;;;;12.00;6.75;;;;;12.13;56.60;100745.66;4970276;28;45457;-79
2022/04/21 01:28:18;;;;;;;;;8.00;7.25;;;;;12.08;56.40;100737.97;4976870;28;45417;-79
2022/04/21 01:30:43;;;;;;;;;11.00;9.00;;;;;12.05;56.72;100737.25;4969325;28;45961;-79
2022/04/21 01:33:09;;;;;;;;;11.50;8.25;;;;;12.02;57.05;100733.00;4970323;28;45374;-79
2022/04/21 01:35:36;;;;;;;;;12.00;9.50;;;;;11.98;56.67;100729.66;4970201;28;45613;-80
2022/04/21 01:43:29;;;;;;;;;10.75;10.75;;;;;11.89;57.54;100730.09;4968493;28;45384;-79
2022/04/21 01:45:54;;;;;;;;;10.25;10.25;;;;;11.87;57.49;100723.22;4967645;28;45714;-79
2022/04/21 01:48:20;;;;;;;;;10.50;10.00;;;;;11.83;57.30;100725.13;4967953;28;45465;-79
2022/04/21 01:50:45;;;;;;;;;12.75;10.50;;;;;11.84;57.72;100726.84;4969546;28;54284;-79
2022/04/21 01:53:10;;;;;;;;;11.00;10.50;;;;;11.82;57.66;100719.94;4972792;28;45390;-79
2022/04/21 01:55:36;;;;;;;;;11.50;10.00;;;;;11.81;57.82;100723.47;4974644;28;45432;-79
2022/04/21 01:58:01;;;;;;;;;7.75;7.25;;;;;11.80;57.67;100721.75;4974070;28;45684;-79
2022/04/21 02:00:26;;;;;;;;;11.00;7.25;;;;;11.77;57.66;100725.41;4973228;28;45338;-78
2022/04/21 02:02:52;;;;;;;;;9.50;9.00;;;;;11.73;58.18;100713.31;4966691;28;45825;-80
2022/04/21 02:05:17;;;;;;;;;14.25;11.75;;;;;11.70;57.87;100716.09;4973051;28;45461;-79
2022/04/21 02:07:44;;;;;;;;;13.75;12.25;;;;;11.68;58.17;100713.53;4973905;28;45319;-79
2022/04/21 02:10:09;;;;;;;;;10.25;9.25;;;;;11.68;58.18;100710.03;4974617;28;47220;-79
2022/04/21 02:12:34;;;;;;;;;10.50;9.50;;;;;11.65;57.96;100712.84;4972457;28;45312;-79
2022/04/21 02:15:02;;;;;;;;;10.00;10.00;;;;;11.63;58.48;100712.03;4972536;28;50153;-79
2022/04/21 02:17:30;;;;;;;;;10.50;10.00;;;;;11.60;58.29;100714.84;4972140;28;45653;-79
2022/04/21 02:19:55;;;;;;;;;9.50;9.25;;;;;11.58;58.65;100696.47;4972161;28;47292;-79
2022/04/21 02:22:21;;;;;;;;;13.75;12.25;;;;;11.57;58.65;100701.81;4974966;28;45428;-79
2022/04/21 02:24:46;;;;;;;;;12.00;10.75;;;;;11.55;58.60;100695.78;4972676;28;45565;-79
2022/04/21 02:27:11;;;;;;;;;9.50;7.75;;;;;11.54;58.61;100688.78;4972809;28;45383;-79
2022/04/21 02:29:37;;;;;;;;;13.00;12.00;;;;;11.53;58.88;100690.56;4971209;28;46055;-79
2022/04/21 02:32:03;;;;;;;;;9.50;9.50;;;;;11.51;58.68;100687.16;4973047;28;45485;-79
2022/04/21 02:34:29;;;;;;;;;10.75;9.75;;;;;11.49;58.79;100684.63;4973032;28;45481;-78
2022/04/21 02:36:55;;;;;;;;;13.00;11.25;;;;;11.47;58.77;100685.59;4972614;28;45413;-79
2022/04/21 02:39:20;;;;;;;;;9.50;9.50;;;;;11.45;59.20;100685.69;4972443;28;46213;-79
2022/04/21 02:41:45;;;;;;;;;9.75;9.75;;;;;11.43;58.93;100679.66;4972551;28;45464;-79
2022/04/21 02:44:11;;;;;;;;;9.50;9.50;;;;;11.42;58.11;100677.06;4972721;28;45292;-79
2022/04/21 02:46:36;;;;;;;;;11.25;9.75;;;;;11.43;57.63;100679.66;4973924;28;45283;-79
2022/04/21 02:49:02;;;;;;;;;9.00;9.00;;;;;11.43;57.12;100670.88;4965341;28;45444;-79
2022/04/21 02:51:30;;;;;;;;;12.00;9.50;;;;;11.44;56.87;100683.13;4970005;28;45712;-79
2022/04/21 02:59:24;;;;;;;;;8.75;8.75;;;;;11.45;55.39;100667.25;4972247;28;45769;-79
2022/04/21 03:01:49;;;;;;;;;11.25;7.00;;;;;11.46;55.38;100676.00;4971096;28;45930;-78
2022/04/21 03:04:14;;;;;;;;;11.50;9.00;;;;;11.47;55.02;100673.28;4967904;28;45461;-79
2022/04/21 03:06:40;;;;;;;;;10.25;10.25;;;;;11.44;54.65;100667.34;4970462;28;45517;-78
2022/04/21 03:09:05;;;;;;;;;10.75;8.50;;;;;11.44;54.13;100670.81;4970100;28;45458;-79
2022/04/21 03:11:30;;;;;;;;;14.50;11.25;;;;;11.45;53.75;100669.03;4972091;28;45515;-79
2022/04/21 03:13:56;;;;;;;;;11.50;10.25;;;;;11.46;53.76;100668.09;4972277;28;45640;-78
2022/04/21 03:16:21;;;;;;;;;9.25;8.25;;;;;11.40;53.99;100652.63;4974645;28;45308;-79
2022/04/21 03:18:46;;;;;;;;;9.00;8.00;;;;;11.45;54.03;100661.16;4971124;28;46730;-78
2022/04/21 03:26:39;;;;;;;;;11.25;10.75;;;;;11.37;53.45;100653.59;4971786;28;45412;-79
2022/04/21 03:29:04;;;;;;;;;11.00;9.75;;;;;11.37;53.58;100658.00;4972339;28;46114;-79
2022/04/21 03:31:30;;;;;;;;;14.75;9.00;;;;;11.35;53.20;100649.34;4973539;28;60298;-79
2022/04/21 03:33:55;;;;;;;;;11.75;9.25;;;;;11.33;53.38;100652.06;4972033;28;45977;-78
2022/04/21 03:36:21;;;;;;;;;9.75;9.75;;;;;11.31;53.22;100660.94;4968125;28;45336;-79
2022/04/21 03:38:46;;;;;;;;;11.75;9.25;;;;;11.29;53.48;100655.75;4971754;28;45430;-78
2022/04/21 03:41:11;;;;;;;;;10.50;9.50;;;;;11.26;53.24;100652.41;4973240;28;45321;-78
2022/04/21 03:43:37;;;;;;;;;17.00;10.00;;;;;11.23;53.67;100650.78;4973088;28;45244;-79
2022/04/21 03:46:02;;;;;;;;;12.75;11.50;;;;;11.21;53.34;100653.47;4971124;28;45425;-78
2022/04/21 03:48:29;;;;;;;;;12.00;9.00;;;;;11.19;53.28;100655.34;4971103;28;54664;-79
2022/04/21 03:50:54;;;;;;;;;11.50;9.00;;;;;11.19;53.13;100657.13;4971784;28;45434;-79
2022/04/21 03:53:19;;;;;;;;;13.25;9.25;;;;;11.18;52.88;100661.53;4971143;28;45426;-78
2022/04/21 03:55:45;;;;;;;;;11.00;9.25;;;;;11.18;52.95;100658.88;4973312;28;45269;-78
2022/04/21 03:58:10;;;;;;;;;10.50;9.25;;;;;11.16;52.79;100663.34;4973422;28;47549;-79
2022/04/21 04:00:35;;;;;;;;;10.00;8.67;;;;;11.14;52.87;100654.69;4971289;28;50431;-79
2022/04/21 04:03:00;;;;;;;;;10.00;10.00;;;;;11.11;52.68;100657.44;4968470;28;45403;-78
2022/04/21 04:05:26;;;;;;;;;10.00;6.67;;;;;11.09;52.76;100661.94;4971812;28;53730;-78
2022/04/21 04:10:53;;;;;;;;;11.50;11.00;;;;;11.05;52.30;100657.75;4969754;28;45777;-79
2022/04/21 04:13:20;;;;;;;;;11.25;9.00;;;;;11.03;52.36;100658.75;4972891;28;45351;-79
2022/04/21 04:15:48;;;;;;;;;11.50;10.75;;;;;11.01;52.15;100658.78;4971353;28;45345;-79
2022/04/21 04:18:17;;;;;;;;;15.75;10.00;;;;;11.00;52.01;100654.47;4971218;28;46154;-78
2022/04/21 04:20:43;;;;;;;;;6.00;6.00;;;;;10.98;52.07;100659.81;4971022;28;45855;-79
2022/04/21 04:23:09;;;;;;;;;10.00;10.00;;;;;10.99;51.84;100660.66;4970236;28;45342;-78
2022/04/21 04:25:35;;;;;;;;;10.75;8.75;;;;;10.98;51.29;100664.22;4966474;28;45588;-79
2022/04/21 04:28:03;;;;;;;;;14.25;11.00;;;;;10.96;51.65;100653.78;4970296;28;47007;-78
2022/04/21 04:30:29;;;;;;;;;10.00;10.00;;;;;10.94;51.37;100652.97;4971771;28;45291;-77
2022/04/21 04:32:54;;;;;;;;;11.75;11.00;;;;;10.95;51.13;100664.34;4971466;28;45350;-79
2022/04/21 04:35:19;;;;;;;;;11.25;10.00;;;;;10.93;50.93;100672.31;4971265;28;45378;-78
2022/04/21 04:37:45;;;;;;;;;11.00;10.25;;;;;10.89;50.74;100670.72;4971409;28;46278;-78
2022/04/21 04:40:10;;;;;;;;;8.50;8.50;;;;;10.87;50.96;100671.75;4973106;28;45783;-79
2022/04/21 04:42:36;;;;;;;;;10.00;10.00;;;;;10.83;50.76;100671.00;4968848;28;45383;-79
2022/04/21 04:47:45;;;;;;;;;11.50;10.25;;;;;10.82;50.87;100674.56;4970341;28;45586;-78
2022/04/21 04:50:10;;;;;;;;;12.00;10.00;;;;;10.83;51.26;100670.16;4970774;28;45407;-80
2022/04/21 04:52:37;;;;;;;;;10.25;9.75;;;;;10.83;50.63;100678.06;4971895;28;45485;-78
2022/04/21 04:55:02;;;;;;;;;10.75;9.75;;;;;10.81;50.51;100670.25;4971721;28;45589;-79
2022/04/21 04:57:28;;;;;;;;;12.25;11.00;;;;;10.83;50.58;100680.69;4970954;28;46641;-79
2022/04/21 04:59:53;;;;;;;;;9.50;8.25;;;;;10.84;50.81;100680.59;4967850;28;45469;-78
2022/04/21 05:02:20;;;;;;;;;14.00;10.50;;;;;10.85;50.59;100671.78;4969750;28;45256;-78
2022/04/21 05:04:46;;;;;;;;;11.00;9.50;;;;;10.87;50.32;100671.75;4971758;28;45315;-78
2022/04/21 05:07:13;;;;;;;;;9.25;9.25;;;;;10.90;50.37;100668.97;4970640;28;45598;-78
2022/04/21 05:09:38;;;;;;;;;13.75;10.00;;;;;10.91;50.55;100674.16;4971038;28;45828;-78
2022/04/21 05:12:04;;;;;;;;;15.00;10.50;;;;;10.93;50.00;100687.22;4968356;28;45399;-80
2022/04/21 05:14:29;;;;;;;;;12.00;11.50;;;;;10.96;50.15;100682.69;4968385;28;45560;-78
2022/04/21 05:16:55;;;;;;;;;9.75;9.50;;;;;11.01;49.93;100684.25;4979865;28;46202;-78
2022/04/21 05:19:21;;;;;;;;;13.25;7.00;;;;;11.03;49.89;100672.75;4967474;28;45524;-77
2022/04/21 05:21:48;;;;;;;;;13.00;11.00;;;;;11.10;50.33;100679.41;4967205;28;45411;-78
2022/04/21 05:24:14;;;;;;;;;11.25;11.00;;;;;11.15;49.91;100689.72;4968607;28;45625;-77
2022/04/21 05:26:40;;;;;;;;;9.00;9.00;;;;;11.16;49.91;100678.28;4968268;28;45629;-77
2022/04/21 05:31:55;;;;;;;;;10.50;9.00;;;;;11.33;49.57;100686.25;4981401;28;45314;-78
2022/04/21 05:34:21;;;;;;;;;13.33;11.00;;;;;11.38;49.42;100684.28;4971021;28;45432;-78
2022/04/21 05:36:46;;;;;;;;;11.25;11.00;;;;;11.45;49.59;100692.72;4968582;28;45486;-78
2022/04/21 05:39:12;;;;;;;;;11.25;9.50;;;;;11.51;49.46;100687.16;4969101;28;45505;-78
2022/04/21 05:41:38;;;;;;;;;13.50;12.00;;;;;11.56;49.07;100681.69;4969108;28;45424;-79
2022/04/21 05:44:04;;;;;;;;;10.00;9.75;;;;;11.60;49.32;100684.09;4969417;28;45566;-79
2022/04/21 05:46:29;;;;;;;;;13.50;11.75;;;;;11.65;49.14;100686.50;4966699;28;46189;-77
2022/04/21 05:48:55;;;;;;;;;10.75;10.25;;;;;11.70;49.12;100679.25;4968877;28;45353;-78
2022/04/21 05:51:21;;;;;;;;;11.00;10.00;;;;;11.72;49.09;100680.00;4960740;28;45481;-78
2022/04/21 05:53:50;;;;;;;;;11.50;10.50;;;;;11.75;48.95;100678.09;4968063;28;45350;-78
2022/04/21 05:56:16;;;;;;;;;9.75;9.00;;;;;11.75;48.82;100671.97;4964358;28;45505;-79
2022/04/21 05:58:41;;;;;;;;;10.00;8.25;;;;;11.76;48.67;100673.69;4971833;28;45384;-78
2022/04/21 06:01:08;;;;;;;;;11.50;11.50;;;;;11.77;49.17;100670.13;4956894;28;45377;-78
2022/04/21 06:03:38;;;;;;;;;10.00;10.00;;;;;11.77;49.04;100667.47;4957896;28;45432;-77
2022/04/21 06:06:04;;;;;;;;;11.50;10.00;;;;;11.80;48.73;100669.09;4957909;28;46126;-78
2022/04/21 06:08:29;;;;;;;;;11.75;8.75;;;;;11.80;48.71;100666.47;4972741;28;45617;-77
2022/04/21 06:10:58;;;;;;;;;13.75;11.00;;;;;11.82;49.00;100667.28;4980273;28;45351;-79
2022/04/21 06:13:25;;;;;;;;;11.75;9.75;;;;;11.83;48.68;100664.56;4969908;28;45467;-78
2022/04/21 06:15:50;;;;;;;;;12.75;9.25;;;;;11.85;49.03;100667.13;4958069;28;46171;-78
2022/04/21 06:18:15;;;;;;;;;10.75;10.25;;;;;11.87;49.05;100660.88;4955719;28;45424;-78
2022/04/21 06:20:41;;;;;;;;;10.25;8.25;;;;;11.89;48.51;100660.78;4964433;28;47081;-78
2022/04/21 06:23:06;;;;;;;;;12.50;10.50;;;;;11.92;49.11;100660.66;4968064;28;45297;-78
2022/04/21 06:25:32;;;;;;;;;13.50;11.25;;;;;11.94;49.09;100661.41;4957870;28;46522;-78
2022/04/21 06:27:57;;;;;;;;;6.00;2.00;;;;;11.96;48.88;100660.41;4965771;28;45402;-78
2022/04/21 06:30:23;;;;;;;;;11.00;9.00;;;;;11.98;48.91;100657.69;4964116;28;46115;-78
2022/04/21 06:32:49;;;;;;;;;16.50;14.75;;;;;11.98;49.30;100662.97;4959841;28;45534;-78
2022/04/21 06:35:15;;;;;;;;;12.25;11.25;;;;;12.00;49.04;100659.31;4967687;28;45613;-75
2022/04/21 06:37:42;;;;;;;;;15.00;12.25;;;;;12.02;48.74;100654.84;4986823;28;46177;-77
2022/04/21 06:40:08;;;;;;;;;13.00;11.25;;;;;12.12;48.81;100655.22;4977536;28;45588;-81
2022/04/21 06:42:35;;;;;;;;;10.75;10.75;;;;;12.22;48.97;100651.19;4992857;28;45476;-77
2022/04/21 06:48:04;;;;;;;;;14.75;9.75;;;;;12.44;48.67;100650.94;4965242;28;45859;-77
2022/04/21 06:50:36;;;;;;;;;12.50;12.50;;;;;12.56;48.46;100653.88;4977234;28;45495;-77
2022/04/21 06:53:03;;;;;;;;;16.50;13.00;;;;;12.64;48.30;100646.41;4966054;28;45602;-77
2022/04/21 06:55:29;;;;;;;;;15.50;12.50;;;;;12.72;48.21;100655.59;4956904;28;46386;-77
2022/04/21 06:57:55;;;;;;;;;11.50;9.75;;;;;12.82;48.09;100655.97;4971020;28;45592;-77
2022/04/21 07:00:22;;;;;;;;;13.00;10.75;;;;;12.92;48.47;100644.00;4972492;28;45614;-78
2022/04/21 07:02:50;;;;;;;;;12.00;11.00;;;;;13.04;47.91;100640.69;4969971;28;45518;-77
2022/04/21 07:05:15;;;;;;;;;13.25;10.50;;;;;13.22;48.02;100645.94;4970420;28;48056;-77
2022/04/21 07:07:41;;;;;;;;;14.25;10.75;;;;;13.35;47.92;100648.72;4968642;28;45528;-78
2022/04/21 07:10:07;;;;;;;;;13.25;12.00;;;;;13.45;47.65;100634.06;4979889;28;45893;-75
2022/04/21 07:12:34;;;;;;;;;13.75;11.75;;;;;13.68;47.39;100638.91;4969873;28;45751;-77
2022/04/21 07:15:00;;;;;;;;;13.50;11.50;;;;;13.96;47.16;100642.59;4981508;28;47144;-77
2022/04/21 07:17:26;;;;;;;;;11.75;11.75;;;;;14.02;46.91;100631.66;4981705;28;45485;-77
2022/04/21 07:19:52;;;;;;;;;13.50;10.50;;;;;14.05;46.96;100632.34;4979996;28;45348;-77
2022/04/21 07:22:24;;;;;;;;;10.25;10.25;;;;;14.14;46.67;100630.94;4966510;28;45478;-77
2022/04/21 07:24:50;;;;;;;;;9.00;7.75;;;;;14.21;46.55;100631.44;4980533;28;48118;-78
2022/04/21 07:27:15;;;;;;;;;10.00;10.00;;;;;14.40;46.24;100628.50;4968837;28;45335;-78
2022/04/21 07:29:40;;;;;;;;;14.50;13.25;;;;;14.55;46.29;100627.63;4983129;28;45374;-79
2022/04/21 07:32:06;;;;;;;;;16.00;11.25;;;;;14.64;45.82;100628.84;4970145;28;45270;-78
2022/04/21 07:34:31;;;;;;;;;13.00;12.00;;;;;14.62;46.23;100634.25;4975399;28;46299;-78
2022/04/21 07:36:57;;;;;;;;;8.75;8.75;;;;;14.68;45.81;100633.88;4970567;28;45501;-77
2022/04/21 07:39:22;;;;;;;;;13.67;12.67;;;;;14.72;45.71;100634.50;4964305;28;47285;-78
2022/04/21 07:41:47;;;;;;;;;12.67;10.00;;;;;14.79;45.57;100636.69;4961002;28;52558;-78
2022/04/21 07:44:12;;;;;;;;;15.00;12.50;;;;;14.87;45.54;100633.56;4957793;28;45316;-77
2022/04/21 07:46:38;;;;;;;;;13.25;11.75;;;;;14.98;45.60;100638.19;4971969;28;45454;-78
2022/04/21 07:51:47;;;;;;;;;19.25;12.25;;;;;15.26;45.46;100634.66;4959405;28;45583;-78
2022/04/21 07:54:13;;;;;;;;;12.00;11.00;;;;;15.35;44.89;100631.41;4961463;28;45541;-78
2022/04/21 07:56:38;;;;;;;;;11.50;11.50;;;;;15.47;44.67;100635.06;4957363;28;45419;-77
2022/04/21 07:59:03;;;;;;;;;12.25;10.50;;;;;15.58;44.74;100635.22;4969280;28;45498;-77
2022/04/21 08:01:29;;;;;;;;;13.50;12.50;;;;;15.65;44.49;100634.72;4954425;28;45410;-77
2022/04/21 08:03:55;;;;;;;;;11.00;8.25;;;;;15.77;43.85;100630.44;4969133;28;47722;-77
2022/04/21 08:06:20;;;;;;;;;15.25;13.00;;;;;15.89;43.89;100640.22;4963163;28;45730;-77
2022/04/21 08:08:46;;;;;;;;;14.00;12.50;;;;;16.03;43.62;100643.75;4965721;28;45546;-78
2022/04/21 08:11:12;;;;;;;;;12.00;10.00;;;;;16.15;42.89;100635.81;4958332;28;45521;-78
2022/04/21 08:13:37;;;;;;;;;14.25;12.25;;;;;16.25;42.94;100645.81;4969474;28;45572;-77
2022/04/21 08:16:02;;;;;;;;;16.50;15.50;;;;;16.37;43.06;100637.00;4956269;28;45364;-77
2022/04/21 08:18:28;;;;;;;;;11.50;10.00;;;;;16.57;43.18;100643.59;4962315;28;45673;-77
2022/04/21 08:20:57;;;;;;;;;17.75;14.25;;;;;16.84;42.58;100648.81;4964172;28;45506;-77
2022/04/21 08:23:26;;;;;;;;;12.25;10.25;;;;;17.12;42.15;100639.72;4954698;28;46931;-78
2022/04/21 08:34:20;;;;;;;;;10.75;9.50;;;;;18.94;40.10;100632.13;4951952;28;45765;-78
2022/04/21 08:36:45;;;;;;;;;17.25;12.00;;;;;19.41;40.30;100632.78;4949940;28;45538;-77
2022/04/21 08:39:10;;;;;;;;;19.50;14.75;;;;;20.04;39.48;100620.44;4948530;28;45453;-77
2022/04/21 08:41:47;;;;;;;;;15.00;12.00;;;;;20.88;38.96;100625.75;4940440;28;45446;-77
2022/04/21 08:44:24;;;;;;;;;12.75;10.50;;;;;21.70;38.91;100633.53;4959952;28;45638;-77
2022/04/21 08:46:52;;;;;;;;;14.50;13.50;;;;;22.63;37.14;100619.47;4951174;28;45849;-77
2022/04/21 08:49:21;;;;;;;;;16.00;13.75;;;;;24.18;36.11;100628.38;4951438;28;45331;-77
2022/04/21 08:51:47;;;;;;;;;15.00;14.00;;;;;27.04;36.17;100618.97;4951367;28;45429;-78
2022/04/21 08:54:13;;;;;;;;;16.25;13.25;;;;;29.69;33.22;100616.94;4950830;28;46268;-77
2022/04/21 08:56:38;;;;;;;;;13.75;11.25;;;;;32.24;29.93;100609.59;4950662;28;45541;-77
2022/04/21 08:59:04;;;;;;;;;16.00;13.00;;;;;34.52;29.14;100622.47;4950578;28;45450;-77
2022/04/21 09:01:29;;;;;;;;;12.00;11.00;;;;;36.76;27.36;100616.63;4950590;28;45534;-77
2022/04/21 09:03:54;;;;;;;;;10.75;9.25;;;;;38.85;25.34;100628.53;4969742;28;46339;-77
2022/04/21 09:06:21;;;;;;;;;16.50;12.50;;;;;39.79;23.08;100626.53;4970334;28;45541;-78
2022/04/21 09:08:48;;;;;;;;;15.00;12.00;;;;;40.37;21.15;100622.03;4970745;28;45592;-78
2022/04/21 09:11:15;;;;;;;;;15.50;12.50;;;;;40.64;20.41;100630.19;4970973;28;45426;-78
2022/04/21 09:13:42;;;;;;;;;14.00;12.00;;;;;41.09;20.28;100624.06;4971337;28;46038;-78
2022/04/21 09:16:10;;;;;;;;;9.00;9.00;;;;;41.63;18.63;100623.63;4972189;28;45722;-78
2022/04/21 09:18:44;;;;;;;;;11.75;10.25;;;;;41.70;18.75;100626.09;4972200;28;45386;-77
2022/04/21 09:21:14;;;;;;;;;15.00;13.50;;;;;41.50;19.45;100626.09;4970575;28;45451;-77
2022/04/21 09:23:39;;;;;;;;;12.25;11.75;;;;;41.17;18.44;100617.19;4970649;28;46504;-78
2022/04/21 09:26:13;;;;;;;;;14.75;12.00;;;;;40.44;17.94;100611.59;4970488;28;45562;-78
2022/04/21 09:28:39;;;;;;;;;11.00;10.00;;;;;38.92;18.95;100611.00;4971636;28;45365;-77
2022/04/21 09:31:07;;;;;;;;;12.00;11.00;;;;;37.29;19.20;100611.97;4971764;28;45340;-77
2022/04/21 09:33:42;;;;;;;;;13.00;12.00;;;;;36.47;20.10;100606.66;4968905;28;46373;-77
2022/04/21 09:36:08;;;;;;;;;11.75;11.25;;;;;35.58;19.37;100620.31;4966006;28;45736;-78
2022/04/21 09:38:34;;;;;;;;;11.75;10.00;;;;;34.68;20.04;100617.47;4968167;28;45390;-77
2022/04/21 09:41:07;;;;;;;;;11.50;8.75;;;;;34.44;20.42;100614.56;4970683;28;45396;-78
2022/04/21 09:43:35;;;;;;;;;11.75;9.25;;;;;34.18;20.74;100610.16;4967936;28;45463;-78
2022/04/21 09:46:18;;;;;;;;;12.50;12.50;;;;;33.83;20.65;100600.78;4969691;28;45611;-78
2022/04/21 09:48:45;;;;;;;;;12.00;11.25;;;;;33.57;20.59;100602.69;4970439;28;45438;-78
2022/04/21 09:51:13;;;;;;;;;11.75;10.50;;;;;33.35;20.73;100599.41;4968603;28;45486;-78
2022/04/21 09:53:58;;;;;;;;;12.50;10.75;;;;;33.17;20.75;100594.72;4969766;28;47073;-78
2022/04/21 09:56:34;;;;;;;;;14.50;11.25;;;;;32.93;20.68;100587.28;4970127;28;45580;-78
2022/04/21 09:59:08;;;;;;;;;11.00;10.75;;;;;32.68;20.85;100589.84;4967992;28;45317;-79
2022/04/21 10:01:36;;;;;;;;;10.75;9.50;;;;;32.54;20.40;100588.25;4968526;28;45343;-78
2022/04/21 10:04:05;;;;;;;;;12.50;11.00;;;;;32.31;21.02;100580.50;4970426;28;45446;-77
2022/04/21 10:06:31;;;;;;;;;11.25;10.25;;;;;32.20;20.93;100590.16;4969654;28;45536;-77
2022/04/21 10:08:56;;;;;;;;;13.75;12.00;;;;;32.29;21.34;100571.72;4969173;28;45488;-78
2022/04/21 10:11:24;;;;;;;;;11.50;11.00;;;;;32.46;21.52;100579.25;4970309;28;45484;-77
2022/04/21 10:13:55;;;;;;;;;14.75;13.50;;;;;32.26;20.90;100575.69;4972957;28;46746;-77
2022/04/21 10:16:24;;;;;;;;;13.25;11.00;;;;;31.80;20.64;100573.00;4973896;28;45518;-77
2022/04/21 10:18:52;;;;;;;;;9.25;8.50;;;;;31.12;21.41;100573.91;4971874;28;45822;-78
2022/04/21 10:21:25;;;;;;;;;13.75;11.75;;;;;30.32;21.64;100575.34;4972993;28;45693;-78
2022/04/21 10:23:52;;;;;;;;;10.75;10.75;;;;;29.56;22.07;100567.03;4972594;28;45502;-77
2022/04/21 10:26:37;;;;;;;;;15.00;10.75;;;;;28.90;22.25;100560.00;4970758;28;45427;-78
2022/04/21 10:29:23;;;;;;;;;15.25;13.25;;;;;28.48;23.01;100550.72;4958346;28;45524;-77
2022/04/21 10:32:03;;;;;;;;;12.00;9.75;;;;;28.21;23.59;100550.31;4972682;28;45406;-77
2022/04/21 10:34:41;;;;;;;;;14.25;11.75;;;;;27.92;23.32;100550.25;4971026;28;46138;-77
2022/04/21 10:37:07;;;;;;;;;15.50;12.75;;;;;27.67;23.50;100544.19;4973638;28;45679;-78
2022/04/21 10:39:32;;;;;;;;;12.00;12.00;;;;;27.46;23.66;100548.44;4969661;28;45387;-80
2022/04/21 10:42:14;;;;;;;;;13.50;10.50;;;;;27.36;24.14;100536.22;4963194;28;45450;-78
2022/04/21 10:44:42;;;;;;;;;13.25;12.50;;;;;27.21;24.31;100536.13;4972249;28;45583;-78
2022/04/21 10:47:41;;;;;;;;;13.75;11.00;;;;;27.01;24.64;100536.56;4972559;28;47847;-78
2022/04/21 10:50:20;;;;;;;;;10.50;10.50;;;;;26.67;24.24;100536.88;4972709;28;45902;-78
2022/04/21 10:58:34;;;;;;;;;17.00;13.00;;;;;26.57;24.67;100532.72;4959931;28;45761;-78
2022/04/21 11:01:10;;;;;;;;;13.50;12.00;;;;;26.39;25.04;100539.16;4971592;28;45504;-77
2022/04/21 11:03:38;;;;;;;;;16.25;15.25;;;;;26.40;24.83;100529.22;4972494;28;45778;-79
2022/04/21 11:06:05;;;;;;;;;13.00;12.50;;;;;26.37;25.32;100524.19;4972175;28;45737;-77
2022/04/21 11:08:31;;;;;;;;;12.50;12.00;;;;;26.36;25.17;100517.09;4971165;28;45620;-79
2022/04/21 11:10:57;;;;;;;;;12.00;12.00;;;;;26.23;25.02;100510.41;4972873;28;45327;-78
2022/04/21 11:13:38;;;;;;;;;12.25;11.25;;;;;26.10;24.93;100510.13;4973858;28;45564;-77
2022/04/21 11:16:04;;;;;;;;;14.25;11.75;;;;;26.06;25.14;100516.88;4971252;28;45384;-78
2022/04/21 11:18:31;;;;;;;;;14.25;13.75;;;;;25.96;25.12;100505.44;4971744;28;45495;-77
2022/04/21 11:21:26;;;;;;;;;14.00;12.75;;;;;25.85;24.99;100501.25;4972647;28;45395;-77
2022/04/21 11:23:51;;;;;;;;;12.50;11.00;;;;;25.92;25.19;100496.03;4970759;28;45484;-77
2022/04/21 11:26:17;;;;;;;;;13.00;12.00;;;;;25.94;24.82;100500.22;4972033;28;45435;-76
2022/04/21 11:28:45;;;;;;;;;12.25;12.00;;;;;25.87;24.84;100501.06;4972393;28;45511;-78
2022/04/21 11:31:11;;;;;;;;;17.00;13.50;;;;;25.86;25.22;100488.63;4973974;28;45429;-78
2022/04/21 11:33:39;;;;;;;;;10.00;8.00;;;;;25.88;25.29;100483.91;4970522;28;45495;-78
2022/04/21 11:36:08;;;;;;;;;12.25;10.00;;;;;25.84;24.80;100494.19;4970956;28;45444;-78
2022/04/21 11:38:35;;;;;;;;;15.75;13.00;;;;;25.74;24.58;100483.59;4972858;28;45456;-77
2022/04/21 11:41:05;;;;;;;;;9.75;9.50;;;;;25.87;25.02;100483.06;4971289;28;45450;-77
2022/04/21 11:43:31;;;;;;;;;13.50;13.50;;;;;25.98;25.02;100489.94;4979836;28;45437;-77
2022/04/21 11:45:59;;;;;;;;;10.00;10.00;;;;;25.97;24.57;100482.88;4972058;28;45517;-78
2022/04/21 11:48:42;;;;;;;;;10.75;10.00;;;;;25.96;24.69;100484.75;4971777;28;45414;-78
2022/04/21 11:51:09;;;;;;;;;12.75;10.25;;;;;25.95;24.48;100464.22;4972494;28;45538;-78
2022/04/21 11:53:36;;;;;;;;;11.00;11.00;;;;;26.05;25.07;100466.72;4967238;28;45592;-77
2022/04/21 11:56:06;;;;;;;;;11.25;11.25;;;;;25.98;24.46;100468.41;4971172;28;45377;-78
2022/04/21 11:58:34;;;;;;;;;7.50;6.00;;;;;25.95;24.68;100460.69;4971414;28;45312;-78
2022/04/21 12:06:39;;;;;;;;;10.00;8.75;;;;;25.86;24.66;100456.31;4979513;28;45814;-77